Time;durP1;ratioP1;P1;durP2;ratioP2;P2;SDS_P1;SDS_P2;PMS_P1;PMS_P2;Temp;Humidity;BMP_temperature;BMP_pressure;BME280_temperature;BME280_humidity;BME280_pressure;Samples;Min_cycle;Max_cycle;Signal;HPM_P1;HPM_P2
2023/12/29 00:01:51;;;;;;;;;2.33;2.33;;;;;;;;5079493;27;45324;-81
2023/12/29 00:04:17;;;;;;;;;4.00;4.00;;;;;;;;5079244;28;45294;-82
2023/12/29 00:06:42;;;;;;;;;6.00;4.00;;;;;;;;5079140;28;45376;-81
2023/12/29 00:09:07;;;;;;;;;4.00;4.00;;;;;;;;5079323;28;45276;-83
2023/12/29 00:11:32;;;;;;;;;3.00;1.67;;;;;;;;5060162;28;45350;-82
2023/12/29 00:13:57;;;;;;;;;3.00;3.00;;;;;;;;5079005;28;45295;-82
2023/12/29 00:16:23;;;;;;;;;4.00;3.00;;;;;;;;5061057;28;48308;-83
2023/12/29 00:18:48;;;;;;;;;3.00;3.00;;;;;;;;5079375;28;45571;-82
2023/12/29 00:21:13;;;;;;;;;3.67;3.67;;;;;;;;5061171;28;45374;-81
2023/12/29 00:23:38;;;;;;;;;4.67;4.67;;;;;;;;5079369;28;45543;-81
2023/12/29 00:26:03;;;;;;;;;3.00;3.00;;;;;;;;5060855;28;48416;-81
2023/12/29 00:28:29;;;;;;;;;1.33;1.33;;;;;;;;5079105;28;45371;-82
2023/12/29 00:30:54;;;;;;;;;2.00;2.00;;;;;;;;5079155;28;45462;-81
2023/12/29 00:33:19;;;;;;;;;5.00;3.00;;;;;;;;5066015;28;47030;-83
2023/12/29 00:35:44;;;;;;;;;4.33;4.33;;;;;;;;5082811;28;45354;-81
2023/12/29 00:38:09;;;;;;;;;3.00;1.00;;;;;;;;5082902;28;45453;-81
2023/12/29 00:40:35;;;;;;;;;3.33;3.33;;;;;;;;5082890;28;45288;-82
2023/12/29 00:43:00;;;;;;;;;3.00;3.00;;;;;;;;5064323;28;45835;-83
2023/12/29 00:45:25;;;;;;;;;5.00;3.33;;;;;;;;5082546;28;46580;-82
2023/12/29 00:47:51;;;;;;;;;6.00;4.00;;;;;;;;5064459;28;45447;-83
2023/12/29 00:50:17;;;;;;;;;2.67;2.67;;;;;;;;5064284;28;45298;-82
2023/12/29 00:52:42;;;;;;;;;4.00;4.00;;;;;;;;5064148;28;46238;-81
2023/12/29 00:55:07;;;;;;;;;4.00;3.00;;;;;;;;5082405;28;45305;-81
2023/12/29 00:57:32;;;;;;;;;4.00;4.00;;;;;;;;5081893;28;45318;-81
2023/12/29 00:59:59;;;;;;;;;3.00;3.00;;;;;;;;5082417;28;45302;-81
2023/12/29 01:02:24;;;;;;;;;5.33;4.67;;;;;;;;5097918;27;46154;-81
2023/12/29 01:04:49;;;;;;;;;3.00;3.00;;;;;;;;5082098;28;45322;-81
2023/12/29 01:07:15;;;;;;;;;10.00;10.00;;;;;;;;5097987;27;46063;-81
2023/12/29 01:09:40;;;;;;;;;5.33;4.33;;;;;;;;5082385;28;45212;-82
2023/12/29 01:12:05;;;;;;;;;3.00;3.00;;;;;;;;5082042;27;45429;-81
2023/12/29 01:14:30;;;;;;;;;5.33;3.33;;;;;;;;5080510;28;47567;-82
2023/12/29 01:16:56;;;;;;;;;3.33;3.33;;;;;;;;5080702;28;46053;-81
2023/12/29 01:19:21;;;;;;;;;3.00;3.00;;;;;;;;5082121;28;45251;-81
2023/12/29 01:21:46;;;;;;;;;3.00;3.00;;;;;;;;5081975;28;45183;-80
2023/12/29 01:24:11;;;;;;;;;3.33;2.67;;;;;;;;5081936;28;46664;-82
2023/12/29 01:26:37;;;;;;;;;1.33;1.33;;;;;;;;5081914;28;45185;-82
2023/12/29 01:29:03;;;;;;;;;2.33;2.00;;;;;;;;5097391;27;45358;-82
2023/12/29 01:31:31;;;;;;;;;2.33;2.33;;;;;;;;5081730;28;45547;-83
2023/12/29 01:33:56;;;;;;;;;4.00;3.00;;;;;;;;5097275;27;47397;-82
2023/12/29 01:36:22;;;;;;;;;2.00;2.00;;;;;;;;5094654;27;45249;-81
2023/12/29 01:38:47;;;;;;;;;4.33;2.67;;;;;;;;5081836;28;45400;-81
2023/12/29 01:41:13;;;;;;;;;2.00;2.00;;;;;;;;5081599;28;45291;-82
2023/12/29 01:43:58;;;;;;;;;4.67;3.00;;;;;;;;5079686;28;46320;-83
2023/12/29 01:46:28;;;;;;;;;3.00;3.00;;;;;;;;5063264;28;45316;-83
2023/12/29 01:48:54;;;;;;;;;4.00;4.00;;;;;;;;5081716;28;45394;-84
2023/12/29 01:51:20;;;;;;;;;2.67;1.33;;;;;;;;5081418;28;45375;-82
2023/12/29 01:53:45;;;;;;;;;5.67;4.00;;;;;;;;5063273;28;48317;-81
2023/12/29 01:56:11;;;;;;;;;3.00;3.00;;;;;;;;5079889;28;45465;-81
2023/12/29 01:58:36;;;;;;;;;3.00;3.00;;;;;;;;5080448;28;45443;-82
2023/12/29 02:01:02;;;;;;;;;2.33;2.33;;;;;;;;5081313;27;45390;-80
2023/12/29 02:03:27;;;;;;;;;5.00;3.00;;;;;;;;5081278;27;46060;-81
2023/12/29 02:05:54;;;;;;;;;3.00;2.00;;;;;;;;5081616;27;45347;-81
2023/12/29 02:08:19;;;;;;;;;3.33;3.00;;;;;;;;5097260;27;45248;-81
2023/12/29 02:10:44;;;;;;;;;3.00;2.00;;;;;;;;5081280;28;45526;-82
2023/12/29 02:13:10;;;;;;;;;4.00;3.00;;;;;;;;5080891;28;46041;-81
2023/12/29 02:15:35;;;;;;;;;3.00;3.00;;;;;;;;5079313;28;45280;-81
2023/12/29 02:18:02;;;;;;;;;2.33;2.33;;;;;;;;5062985;28;45208;-81
2023/12/29 02:20:27;;;;;;;;;0.33;0.33;;;;;;;;5081062;28;45229;-82
2023/12/29 02:22:52;;;;;;;;;2.33;2.33;;;;;;;;5079485;28;48470;-83
2023/12/29 02:25:17;;;;;;;;;6.00;3.00;;;;;;;;5081204;28;45279;-82
2023/12/29 02:27:45;;;;;;;;;4.00;3.67;;;;;;;;5081067;28;45303;-82
2023/12/29 02:30:20;;;;;;;;;4.00;2.00;;;;;;;;5062616;28;47210;-78
2023/12/29 02:32:46;;;;;;;;;3.33;2.00;;;;;;;;5080803;28;45343;-81
2023/12/29 02:35:13;;;;;;;;;3.00;1.67;;;;;;;;5080897;28;45354;-82
2023/12/29 02:37:39;;;;;;;;;2.33;2.33;;;;;;;;5080969;28;45295;-81
2023/12/29 02:40:04;;;;;;;;;3.00;2.33;;;;;;;;5080902;28;45467;-81
2023/12/29 02:42:29;;;;;;;;;1.00;1.00;;;;;;;;5062239;28;47973;-81
2023/12/29 02:44:54;;;;;;;;;3.67;1.33;;;;;;;;5080883;28;45218;-81
2023/12/29 02:47:21;;;;;;;;;2.00;2.00;;;;;;;;5079506;28;45366;-83
2023/12/29 02:49:46;;;;;;;;;2.33;1.00;;;;;;;;5062274;28;46375;-82
2023/12/29 02:52:11;;;;;;;;;3.67;2.00;;;;;;;;5079260;28;45912;-83
2023/12/29 02:54:37;;;;;;;;;1.00;1.00;;;;;;;;5080611;28;45224;-81
2023/12/29 02:57:02;;;;;;;;;3.00;1.67;;;;;;;;5079595;27;45465;-83
2023/12/29 02:59:27;;;;;;;;;2.00;2.00;;;;;;;;5080548;28;45519;-82
2023/12/29 03:01:52;;;;;;;;;1.00;1.00;;;;;;;;5080420;28;45259;-81
2023/12/29 03:04:17;;;;;;;;;6.00;5.00;;;;;;;;5096133;27;45901;-82
2023/12/29 03:06:43;;;;;;;;;3.00;2.33;;;;;;;;5080602;28;45149;-81
2023/12/29 03:09:08;;;;;;;;;2.33;2.33;;;;;;;;5080223;28;45428;-80
2023/12/29 03:11:33;;;;;;;;;3.00;2.67;;;;;;;;5080141;28;45577;-81
2023/12/29 03:13:58;;;;;;;;;5.00;2.00;;;;;;;;5080379;28;45362;-83
2023/12/29 03:16:23;;;;;;;;;3.00;2.67;;;;;;;;5079065;28;45556;-82
2023/12/29 03:18:48;;;;;;;;;2.00;1.00;;;;;;;;5080187;28;45387;-82
2023/12/29 03:21:14;;;;;;;;;2.67;2.67;;;;;;;;5080154;28;45412;-82
2023/12/29 03:23:39;;;;;;;;;1.67;1.67;;;;;;;;5080232;28;45275;-80
2023/12/29 03:26:04;;;;;;;;;2.67;2.67;;;;;;;;5080167;28;45290;-82
2023/12/29 03:28:29;;;;;;;;;3.67;2.00;;;;;;;;5079896;28;45413;-82
2023/12/29 03:30:54;;;;;;;;;2.67;2.67;;;;;;;;5080065;27;46269;-82
2023/12/29 03:33:20;;;;;;;;;4.67;3.00;;;;;;;;5079898;28;45356;-81
2023/12/29 03:35:45;;;;;;;;;1.00;1.00;;;;;;;;5080075;28;45397;-80
2023/12/29 03:38:10;;;;;;;;;2.67;2.33;;;;;;;;5079850;28;45574;-85
2023/12/29 03:40:35;;;;;;;;;3.67;2.67;;;;;;;;5079860;28;45353;-82
2023/12/29 03:43:00;;;;;;;;;2.67;2.00;;;;;;;;5071397;28;45870;-81
2023/12/29 03:45:25;;;;;;;;;4.67;2.67;;;;;;;;5080043;28;45252;-81
2023/12/29 03:47:51;;;;;;;;;1.33;1.33;;;;;;;;5079463;28;45318;-83
2023/12/29 03:50:16;;;;;;;;;4.00;3.00;;;;;;;;5078908;28;46037;-82
2023/12/29 03:52:41;;;;;;;;;2.00;2.00;;;;;;;;5078372;28;45339;-81
2023/12/29 03:55:06;;;;;;;;;3.00;3.00;;;;;;;;5079944;28;45559;-82
2023/12/29 03:57:32;;;;;;;;;5.33;2.00;;;;;;;;5079109;28;45435;-81
2023/12/29 03:59:57;;;;;;;;;4.33;4.00;;;;;;;;5095259;27;48186;-83
2023/12/29 04:02:22;;;;;;;;;2.67;2.67;;;;;;;;5095065;27;45386;-81
2023/12/29 04:04:47;;;;;;;;;4.67;3.00;;;;;;;;5078996;27;45314;-81
2023/12/29 04:07:13;;;;;;;;;4.00;4.00;;;;;;;;5096022;27;47064;-81
2023/12/29 04:09:38;;;;;;;;;3.00;3.00;;;;;;;;5098682;27;48275;-82
2023/12/29 04:12:03;;;;;;;;;3.00;3.00;;;;;;;;5081729;28;45467;-81
2023/12/29 04:14:28;;;;;;;;;5.00;5.00;;;;;;;;5083337;28;45555;-81
2023/12/29 04:16:53;;;;;;;;;4.33;3.33;;;;;;;;5082857;28;45484;-81
2023/12/29 04:19:18;;;;;;;;;5.00;5.00;;;;;;;;5082895;28;46053;-81
2023/12/29 04:21:44;;;;;;;;;3.00;3.00;;;;;;;;5081679;28;45775;-82
2023/12/29 04:24:09;;;;;;;;;4.67;1.00;;;;;;;;5098762;27;45295;-81
2023/12/29 04:26:37;;;;;;;;;3.33;3.33;;;;;;;;5082706;28;45290;-82
2023/12/29 04:29:02;;;;;;;;;3.00;1.33;;;;;;;;5082709;28;45341;-81
2023/12/29 04:31:27;;;;;;;;;4.00;3.00;;;;;;;;5082914;27;45141;-81
2023/12/29 04:33:53;;;;;;;;;1.00;1.00;;;;;;;;5082905;28;45410;-81
2023/12/29 04:36:18;;;;;;;;;2.33;2.33;;;;;;;;5098433;27;46259;-81
2023/12/29 04:38:43;;;;;;;;;5.33;3.00;;;;;;;;5098815;27;47627;-84
2023/12/29 04:41:08;;;;;;;;;5.33;5.33;;;;;;;;5082800;28;45360;-80
2023/12/29 04:43:33;;;;;;;;;4.33;3.33;;;;;;;;5081454;28;45581;-81
2023/12/29 04:45:59;;;;;;;;;4.67;4.00;;;;;;;;5082643;28;45399;-81
2023/12/29 04:48:24;;;;;;;;;3.00;3.00;;;;;;;;5081054;28;47956;-81
2023/12/29 04:50:49;;;;;;;;;3.33;3.00;;;;;;;;5080964;28;45335;-81
2023/12/29 04:53:14;;;;;;;;;1.00;1.00;;;;;;;;5082709;28;45332;-82
2023/12/29 04:55:39;;;;;;;;;3.00;3.00;;;;;;;;5082583;28;45373;-82
2023/12/29 04:58:04;;;;;;;;;3.00;1.00;;;;;;;;5070148;28;48391;-82
2023/12/29 05:00:30;;;;;;;;;4.00;2.33;;;;;;;;5082583;28;45298;-81
2023/12/29 05:02:55;;;;;;;;;3.00;3.00;;;;;;;;5082700;28;45509;-81
2023/12/29 05:05:20;;;;;;;;;2.00;2.00;;;;;;;;5063897;28;45936;-81
2023/12/29 05:07:45;;;;;;;;;4.67;3.00;;;;;;;;5082348;28;46116;-81
2023/12/29 05:10:10;;;;;;;;;3.00;3.00;;;;;;;;5082477;28;45338;-82
2023/12/29 05:12:35;;;;;;;;;3.00;3.00;;;;;;;;5080969;28;45426;-82
2023/12/29 05:15:01;;;;;;;;;3.00;3.00;;;;;;;;5082008;28;45300;-81
2023/12/29 05:17:26;;;;;;;;;2.00;2.00;;;;;;;;5081764;28;46262;-81
2023/12/29 05:19:51;;;;;;;;;4.00;3.00;;;;;;;;5079916;28;45340;-82
2023/12/29 05:22:17;;;;;;;;;3.00;1.00;;;;;;;;5082328;28;45141;-82
2023/12/29 05:24:42;;;;;;;;;3.33;2.00;;;;;;;;5080771;28;46289;-83
2023/12/29 05:27:08;;;;;;;;;3.67;3.67;;;;;;;;5080271;28;47259;-82
2023/12/29 05:29:33;;;;;;;;;3.00;3.00;;;;;;;;5080664;28;46018;-81
2023/12/29 05:31:58;;;;;;;;;3.00;1.67;;;;;;;;5082077;28;45288;-83
2023/12/29 05:34:24;;;;;;;;;1.67;1.67;;;;;;;;5080526;28;46045;-82
2023/12/29 05:36:49;;;;;;;;;3.00;2.00;;;;;;;;5081935;28;45192;-82
2023/12/29 05:39:14;;;;;;;;;4.00;2.67;;;;;;;;5080436;28;45288;-81
2023/12/29 05:41:39;;;;;;;;;3.00;2.00;;;;;;;;5081806;28;45210;-83
2023/12/29 05:44:04;;;;;;;;;4.00;2.33;;;;;;;;5081657;28;45200;-82
2023/12/29 05:46:29;;;;;;;;;3.00;2.33;;;;;;;;5080391;28;47145;-81
2023/12/29 05:48:55;;;;;;;;;3.00;1.67;;;;;;;;5081819;28;45204;-80
2023/12/29 05:51:20;;;;;;;;;4.00;2.00;;;;;;;;5081856;28;45331;-81
2023/12/29 05:53:45;;;;;;;;;1.00;1.00;;;;;;;;5081851;28;45385;-82
2023/12/29 05:56:11;;;;;;;;;3.00;2.00;;;;;;;;5081210;28;45232;-81
2023/12/29 05:58:36;;;;;;;;;2.67;2.67;;;;;;;;5077952;28;45351;-81
2023/12/29 06:01:02;;;;;;;;;2.33;2.33;;;;;;;;5081883;28;45459;-81
2023/12/29 06:03:27;;;;;;;;;3.00;2.33;;;;;;;;5081278;27;45551;-81
2023/12/29 06:05:52;;;;;;;;;2.00;1.00;;;;;;;;5081322;28;46963;-82
2023/12/29 06:08:18;;;;;;;;;2.33;1.67;;;;;;;;5081101;27;45255;-81
2023/12/29 06:10:43;;;;;;;;;6.00;5.33;;;;;;;;5082758;28;45268;-82
2023/12/29 06:13:08;;;;;;;;;2.00;2.00;;;;;;;;5081180;28;45287;-80
2023/12/29 06:15:34;;;;;;;;;2.00;2.00;;;;;;;;5081018;28;45454;-81
2023/12/29 06:17:59;;;;;;;;;2.67;2.67;;;;;;;;5080959;28;45360;-81
2023/12/29 06:20:25;;;;;;;;;5.00;2.00;;;;;;;;5081249;28;45413;-81
2023/12/29 06:22:50;;;;;;;;;2.67;2.00;;;;;;;;5081229;28;45380;-80
2023/12/29 06:25:15;;;;;;;;;3.00;0.00;;;;;;;;5079070;28;46131;-81
2023/12/29 06:27:40;;;;;;;;;2.33;2.00;;;;;;;;5077956;28;45359;-82
2023/12/29 06:30:06;;;;;;;;;1.00;1.00;;;;;;;;5079591;28;45844;-83
2023/12/29 06:32:32;;;;;;;;;3.00;3.00;;;;;;;;5080825;28;45424;-81
2023/12/29 06:34:57;;;;;;;;;3.00;3.00;;;;;;;;5081041;28;45946;-82
2023/12/29 06:37:22;;;;;;;;;2.33;2.33;;;;;;;;5080447;28;45334;-80
2023/12/29 06:39:47;;;;;;;;;2.67;2.00;;;;;;;;5079789;28;45335;-81
2023/12/29 06:42:12;;;;;;;;;2.33;1.33;;;;;;;;5080903;28;45341;-81
2023/12/29 06:44:38;;;;;;;;;2.33;2.33;;;;;;;;5080862;28;46259;-83
2023/12/29 06:47:05;;;;;;;;;3.67;3.00;;;;;;;;5062500;28;45330;-80
2023/12/29 06:49:30;;;;;;;;;2.00;2.00;;;;;;;;5080772;28;45345;-80
2023/12/29 06:51:55;;;;;;;;;2.00;2.00;;;;;;;;5079607;28;47423;-82
2023/12/29 06:54:21;;;;;;;;;2.67;2.67;;;;;;;;5080808;28;46275;-80
2023/12/29 06:56:46;;;;;;;;;4.67;4.00;;;;;;;;5080353;28;45417;-80
2023/12/29 06:59:11;;;;;;;;;2.00;1.67;;;;;;;;5080943;28;45335;-80
2023/12/29 07:01:38;;;;;;;;;6.00;6.00;;;;;;;;5079921;28;45528;-79
2023/12/29 07:04:04;;;;;;;;;3.00;3.00;;;;;;;;5079850;28;46307;-78
2023/12/29 07:06:29;;;;;;;;;2.00;2.00;;;;;;;;5080742;28;45385;-77
2023/12/29 07:08:54;;;;;;;;;4.00;4.00;;;;;;;;5079385;28;45358;-79
2023/12/29 07:11:19;;;;;;;;;5.00;2.00;;;;;;;;5080477;28;45364;-83
2023/12/29 07:13:44;;;;;;;;;2.33;1.67;;;;;;;;5079112;28;48298;-80
2023/12/29 07:16:10;;;;;;;;;1.67;1.67;;;;;;;;5079619;28;45331;-81
2023/12/29 07:18:35;;;;;;;;;4.00;2.00;;;;;;;;5080303;28;45266;-82
2023/12/29 07:21:00;;;;;;;;;2.00;2.00;;;;;;;;5080106;28;45272;-80
2023/12/29 07:23:26;;;;;;;;;4.33;2.67;;;;;;;;5061646;28;47187;-80
2023/12/29 07:25:51;;;;;;;;;4.00;3.00;;;;;;;;5079678;28;45378;-81
2023/12/29 07:28:16;;;;;;;;;2.67;1.00;;;;;;;;5080183;28;45267;-81
2023/12/29 07:30:41;;;;;;;;;4.00;3.00;;;;;;;;5080033;28;45412;-76
2023/12/29 07:33:06;;;;;;;;;2.00;2.00;;;;;;;;5080030;28;46482;-75
2023/12/29 07:35:31;;;;;;;;;2.00;1.00;;;;;;;;5079891;28;45302;-76
2023/12/29 07:37:57;;;;;;;;;2.00;2.00;;;;;;;;5080180;28;45425;-75
2023/12/29 07:40:22;;;;;;;;;2.00;2.00;;;;;;;;5079822;28;45472;-75
2023/12/29 07:42:50;;;;;;;;;0.33;0.33;;;;;;;;5078951;28;45355;-75
2023/12/29 07:45:15;;;;;;;;;2.00;2.00;;;;;;;;5079879;28;45331;-75
2023/12/29 07:47:40;;;;;;;;;2.67;2.67;;;;;;;;5060718;28;45320;-76
2023/12/29 07:50:05;;;;;;;;;3.67;2.00;;;;;;;;5079339;28;45627;-78
2023/12/29 07:52:31;;;;;;;;;3.33;3.33;;;;;;;;5078089;28;48110;-75
2023/12/29 07:54:56;;;;;;;;;2.00;2.00;;;;;;;;5079790;28;45227;-76
2023/12/29 07:57:21;;;;;;;;;2.00;1.33;;;;;;;;5081416;27;45409;-75
2023/12/29 07:59:46;;;;;;;;;4.00;3.00;;;;;;;;5079431;28;45386;-76
2023/12/29 08:02:11;;;;;;;;;2.00;2.00;;;;;;;;5079539;28;46572;-75
2023/12/29 08:04:38;;;;;;;;;5.00;4.00;;;;;;;;5078768;28;45232;-75
2023/12/29 08:07:03;;;;;;;;;2.33;2.00;;;;;;;;5079143;28;45343;-75
2023/12/29 08:09:28;;;;;;;;;3.33;3.00;;;;;;;;5078973;28;45685;-77
2023/12/29 08:11:53;;;;;;;;;3.00;3.00;;;;;;;;5079241;28;45327;-76
2023/12/29 08:14:18;;;;;;;;;1.33;1.33;;;;;;;;5077285;28;45324;-75
2023/12/29 08:16:44;;;;;;;;;6.67;3.33;;;;;;;;5079306;28;45240;-76
2023/12/29 08:19:10;;;;;;;;;1.33;1.00;;;;;;;;5078256;28;45493;-76
2023/12/29 08:21:35;;;;;;;;;1.00;1.00;;;;;;;;5077657;28;45418;-75
2023/12/29 08:24:00;;;;;;;;;3.00;1.67;;;;;;;;5078065;28;45280;-75
2023/12/29 08:26:25;;;;;;;;;3.00;2.33;;;;;;;;5060237;28;45603;-75
2023/12/29 08:28:51;;;;;;;;;3.00;3.00;;;;;;;;5078296;28;45655;-75
2023/12/29 08:31:18;;;;;;;;;1.33;1.33;;;;;;;;5076537;28;45376;-75
2023/12/29 08:33:43;;;;;;;;;2.33;2.00;;;;;;;;5078187;28;45418;-74
2023/12/29 08:36:08;;;;;;;;;2.00;1.00;;;;;;;;5078307;28;45409;-75
2023/12/29 08:38:33;;;;;;;;;1.67;1.67;;;;;;;;5078372;28;45454;-75
2023/12/29 08:40:59;;;;;;;;;2.50;2.50;;;;;;;;5078721;28;45540;-76
2023/12/29 08:43:25;;;;;;;;;1.33;1.33;;;;;;;;5077174;28;45277;-75
2023/12/29 08:45:50;;;;;;;;;2.67;2.67;;;;;;;;5079178;28;45335;-75
2023/12/29 08:48:15;;;;;;;;;4.33;2.33;;;;;;;;5078957;28;45256;-75
2023/12/29 08:50:41;;;;;;;;;2.00;2.00;;;;;;;;5078747;28;45320;-76
2023/12/29 08:53:06;;;;;;;;;5.67;3.00;;;;;;;;5061378;28;45352;-75
2023/12/29 08:55:31;;;;;;;;;2.00;2.00;;;;;;;;5082711;28;45153;-74
2023/12/29 08:57:57;;;;;;;;;2.33;2.33;;;;;;;;5081630;28;45216;-74
2023/12/29 09:00:22;;;;;;;;;2.00;2.00;;;;;;;;5082318;27;45314;-75
2023/12/29 09:02:47;;;;;;;;;1.67;1.67;;;;;;;;5082096;28;45306;-75
2023/12/29 09:05:12;;;;;;;;;3.33;2.00;;;;;;;;5082282;28;45549;-75
2023/12/29 09:07:37;;;;;;;;;2.67;2.67;;;;;;;;5082214;28;45149;-74
2023/12/29 09:10:03;;;;;;;;;2.33;2.33;;;;;;;;5081620;28;46215;-75
2023/12/29 09:12:28;;;;;;;;;2.33;2.33;;;;;;;;5095460;27;45719;-76
2023/12/29 09:14:53;;;;;;;;;2.00;2.00;;;;;;;;5079997;28;45338;-76
2023/12/29 09:17:19;;;;;;;;;2.67;2.67;;;;;;;;5079806;28;45291;-75
2023/12/29 09:19:44;;;;;;;;;2.00;1.67;;;;;;;;5079634;28;45533;-77
2023/12/29 09:22:09;;;;;;;;;2.67;2.00;;;;;;;;5095240;27;45726;-78
2023/12/29 09:24:35;;;;;;;;;2.67;2.67;;;;;;;;5093707;27;45382;-77
2023/12/29 09:27:00;;;;;;;;;4.00;4.00;;;;;;;;5062195;28;45791;-77
2023/12/29 09:29:25;;;;;;;;;4.00;4.00;;;;;;;;5062836;28;46428;-78
2023/12/29 09:31:50;;;;;;;;;2.33;2.00;;;;;;;;5071018;28;45612;-76
2023/12/29 09:34:16;;;;;;;;;3.00;1.67;;;;;;;;5079918;28;45435;-75
2023/12/29 09:36:41;;;;;;;;;3.00;1.67;;;;;;;;5081551;28;45449;-78
2023/12/29 09:39:06;;;;;;;;;1.00;1.00;;;;;;;;5081631;28;46183;-77
2023/12/29 09:41:33;;;;;;;;;2.00;1.00;;;;;;;;5081594;28;45363;-75
2023/12/29 09:44:01;;;;;;;;;2.67;2.67;;;;;;;;5081778;28;45626;-78
2023/12/29 09:46:26;;;;;;;;;1.00;1.00;;;;;;;;5080433;28;46382;-76
2023/12/29 09:48:52;;;;;;;;;2.00;1.33;;;;;;;;5080912;28;46400;-78
2023/12/29 09:51:22;;;;;;;;;1.00;1.00;;;;;;;;5081573;28;45254;-75
2023/12/29 09:53:47;;;;;;;;;3.00;3.00;;;;;;;;5081877;28;45354;-75
2023/12/29 09:56:14;;;;;;;;;2.33;2.33;;;;;;;;5080926;28;45403;-75
2023/12/29 09:58:40;;;;;;;;;3.33;2.00;;;;;;;;5081244;28;45228;-75
2023/12/29 10:01:06;;;;;;;;;2.67;2.33;;;;;;;;5097198;27;45200;-75
2023/12/29 10:03:31;;;;;;;;;4.00;3.00;;;;;;;;5097040;27;45345;-77
2023/12/29 10:05:59;;;;;;;;;3.67;3.67;;;;;;;;5080782;28;45457;-75
2023/12/29 10:08:25;;;;;;;;;6.00;4.67;;;;;;;;5081319;27;46477;-75
2023/12/29 10:10:51;;;;;;;;;3.33;3.33;;;;;;;;5081355;27;45425;-75
2023/12/29 10:13:17;;;;;;;;;3.00;3.00;;;;;;;;5081229;27;45262;-76
2023/12/29 10:15:49;;;;;;;;;6.00;4.00;;;;;;;;5096807;27;45842;-76
2023/12/29 10:18:18;;;;;;;;;5.00;5.00;;;;;;;;5080889;27;45502;-76
2023/12/29 10:20:57;;;;;;;;;3.00;3.00;;;;;;;;5096237;27;45967;-75
2023/12/29 10:23:43;;;;;;;;;5.00;5.00;;;;;;;;5096611;27;45555;-76
2023/12/29 10:26:10;;;;;;;;;4.33;4.00;;;;;;;;5079594;28;47112;-75
2023/12/29 10:28:35;;;;;;;;;3.33;3.33;;;;;;;;5080981;28;46763;-76
2023/12/29 10:31:01;;;;;;;;;3.00;2.67;;;;;;;;5080879;28;45362;-77
2023/12/29 10:33:26;;;;;;;;;2.67;2.33;;;;;;;;5080702;27;45457;-77
2023/12/29 10:36:06;;;;;;;;;3.00;3.00;;;;;;;;5080882;28;45473;-76
2023/12/29 10:38:32;;;;;;;;;2.33;2.33;;;;;;;;5078576;28;46681;-75
2023/12/29 10:41:10;;;;;;;;;10.00;6.67;;;;;;;;5078166;28;45400;-78
2023/12/29 10:43:35;;;;;;;;;1.67;1.67;;;;;;;;5079711;28;45458;-77
2023/12/29 10:46:09;;;;;;;;;2.00;2.00;;;;;;;;5079807;28;45391;-77
2023/12/29 10:48:35;;;;;;;;;3.67;2.33;;;;;;;;5076159;28;46576;-76
2023/12/29 10:51:04;;;;;;;;;6.67;5.33;;;;;;;;5079067;28;45536;-76
2023/12/29 10:53:33;;;;;;;;;3.00;2.00;;;;;;;;5078248;28;45231;-77
2023/12/29 10:55:58;;;;;;;;;3.00;3.00;;;;;;;;5060981;28;46466;-78
2023/12/29 10:58:26;;;;;;;;;3.00;3.00;;;;;;;;5079247;28;46536;-77
2023/12/29 11:00:52;;;;;;;;;2.67;2.67;;;;;;;;5079127;28;45407;-78
2023/12/29 11:03:17;;;;;;;;;6.33;2.67;;;;;;;;5078408;28;45457;-77
2023/12/29 11:05:42;;;;;;;;;4.00;2.00;;;;;;;;5079279;28;45493;-77
2023/12/29 11:08:21;;;;;;;;;3.00;2.33;;;;;;;;5080421;28;45473;-76
2023/12/29 11:10:48;;;;;;;;;4.00;3.00;;;;;;;;5080304;28;45334;-75
2023/12/29 11:13:13;;;;;;;;;3.67;2.00;;;;;;;;5080363;28;45264;-76
2023/12/29 11:15:44;;;;;;;;;2.00;2.00;;;;;;;;5080163;28;45642;-76
2023/12/29 11:18:11;;;;;;;;;1.00;1.00;;;;;;;;5060868;28;47015;-76
2023/12/29 11:20:38;;;;;;;;;4.00;2.00;;;;;;;;5079841;28;45299;-76
2023/12/29 11:23:06;;;;;;;;;3.00;3.00;;;;;;;;5079964;28;45511;-77
2023/12/29 11:25:31;;;;;;;;;6.33;5.00;;;;;;;;5077007;28;45560;-76
2023/12/29 11:27:57;;;;;;;;;3.67;3.67;;;;;;;;5078409;28;47193;-75
2023/12/29 11:30:23;;;;;;;;;3.67;2.00;;;;;;;;5061735;28;45378;-78
2023/12/29 11:32:52;;;;;;;;;2.00;2.00;;;;;;;;5080330;28;45372;-78
2023/12/29 11:35:30;;;;;;;;;2.33;2.00;;;;;;;;5060853;28;46326;-78
2023/12/29 11:38:03;;;;;;;;;3.33;3.33;;;;;;;;5076683;28;46706;-78
2023/12/29 11:40:47;;;;;;;;;2.33;2.33;;;;;;;;5078939;28;45218;-77
2023/12/29 11:43:17;;;;;;;;;2.00;2.00;;;;;;;;5079719;28;45215;-76
2023/12/29 11:45:42;;;;;;;;;2.00;2.00;;;;;;;;5060845;28;46196;-77
2023/12/29 11:48:07;;;;;;;;;1.67;1.67;;;;;;;;5073551;28;48906;-77
2023/12/29 11:50:34;;;;;;;;;3.00;3.00;;;;;;;;5054724;28;45413;-76
2023/12/29 11:52:59;;;;;;;;;3.00;3.00;;;;;;;;5077351;28;45421;-76
2023/12/29 11:55:35;;;;;;;;;2.00;2.00;;;;;;;;5077117;28;46032;-77
2023/12/29 11:58:02;;;;;;;;;4.00;4.00;;;;;;;;5077699;28;45736;-77
2023/12/29 12:00:46;;;;;;;;;3.67;1.33;;;;;;;;5078479;28;45288;-78
2023/12/29 12:03:15;;;;;;;;;3.00;3.00;;;;;;;;5076876;28;45228;-77
2023/12/29 12:05:47;;;;;;;;;4.33;3.67;;;;;;;;5078277;28;45532;-76
2023/12/29 12:08:26;;;;;;;;;2.00;2.00;;;;;;;;5059740;28;46567;-75
2023/12/29 12:10:51;;;;;;;;;5.00;5.00;;;;;;;;5078490;28;45489;-75
2023/12/29 12:13:37;;;;;;;;;2.00;2.00;;;;;;;;5060393;28;45435;-77
2023/12/29 12:16:03;;;;;;;;;3.00;3.00;;;;;;;;5076112;28;45927;-76
2023/12/29 12:18:28;;;;;;;;;5.33;3.33;;;;;;;;5078454;27;45446;-77
2023/12/29 12:20:53;;;;;;;;;4.33;3.67;;;;;;;;5098526;27;45371;-77
2023/12/29 12:23:19;;;;;;;;;2.67;2.67;;;;;;;;5097836;27;45420;-79
2023/12/29 12:25:45;;;;;;;;;2.33;2.33;;;;;;;;5098094;27;45520;-78
2023/12/29 12:28:13;;;;;;;;;4.00;3.00;;;;;;;;5099519;27;45352;-77
2023/12/29 12:30:38;;;;;;;;;4.33;4.33;;;;;;;;5101076;27;46403;-75
2023/12/29 12:36:59;;;;;;;;;2.33;2.33;;;;;;;;5014272;28;45472;-78
2023/12/29 12:40:15;;;;;;;;;2.67;2.67;;;;;;;;5008896;28;45717;-78
2023/12/29 12:45:54;;;;;;;;;3.00;3.00;;;;;;;;4905885;28;46631;-78
2023/12/29 12:48:22;;;;;;;;;4.33;3.33;;;;;;;;5017464;28;45593;-79
2023/12/29 12:50:47;;;;;;;;;8.67;6.67;;;;;;;;5027236;28;45596;-77
2023/12/29 12:53:19;;;;;;;;;2.67;2.33;;;;;;;;5029449;28;45363;-78
2023/12/29 12:55:46;;;;;;;;;5.33;3.00;;;;;;;;5025200;28;45500;-78
2023/12/29 12:58:13;;;;;;;;;4.33;4.33;;;;;;;;5008505;28;46660;-78
2023/12/29 13:00:39;;;;;;;;;2.00;2.00;;;;;;;;5026346;28;45537;-79
2023/12/29 13:03:04;;;;;;;;;0.67;0.00;;;;;;;;5027663;28;45580;-78
2023/12/29 13:05:29;;;;;;;;;3.00;3.00;;;;;;;;5022468;28;45443;-78
2023/12/29 13:07:55;;;;;;;;;2.33;2.33;;;;;;;;5028265;28;45652;-77
2023/12/29 13:10:21;;;;;;;;;4.33;4.33;;;;;;;;5014388;28;46887;-78
2023/12/29 13:12:54;;;;;;;;;4.33;4.33;;;;;;;;5025417;28;45564;-78
2023/12/29 13:15:19;;;;;;;;;3.33;3.33;;;;;;;;5080966;28;45445;-77
2023/12/29 13:17:51;;;;;;;;;3.67;3.67;;;;;;;;5062035;28;45836;-76
2023/12/29 13:20:16;;;;;;;;;2.67;2.67;;;;;;;;5078419;28;45552;-77
2023/12/29 13:22:42;;;;;;;;;3.67;2.67;;;;;;;;5079020;27;45555;-77
2023/12/29 13:25:09;;;;;;;;;1.33;1.33;;;;;;;;5081260;27;45424;-78
2023/12/29 13:27:36;;;;;;;;;2.33;2.33;;;;;;;;5078480;28;46574;-78
2023/12/29 13:30:01;;;;;;;;;3.00;1.33;;;;;;;;5080393;28;46674;-78
2023/12/29 13:32:30;;;;;;;;;4.67;2.33;;;;;;;;5079331;27;45406;-77
2023/12/29 13:35:07;;;;;;;;;2.33;2.00;;;;;;;;5079707;28;45355;-77
2023/12/29 13:47:20;;;;;;;;;3.33;3.00;;;;;;;;5009105;28;45771;-77
2023/12/29 13:50:29;;;;;;;;;4.00;4.00;;;;;;;;5011581;28;45483;-78
2023/12/29 13:52:54;;;;;;;;;2.33;2.00;;;;;;;;4994973;28;46239;-78
2023/12/29 13:55:23;;;;;;;;;1.67;1.67;;;;;;;;5077875;28;45631;-78
2023/12/29 13:57:48;;;;;;;;;3.33;2.00;;;;;;;;5079588;28;45383;-79
2023/12/29 14:00:14;;;;;;;;;3.00;3.00;;;;;;;;5080239;28;45364;-79
2023/12/29 14:02:59;;;;;;;;;2.67;2.67;;;;;;;;5077256;28;47175;-78
2023/12/29 14:05:27;;;;;;;;;2.00;2.00;;;;;;;;5061125;28;45382;-76
2023/12/29 14:12:01;;;;;;;;;;;;;;;;;;;;;
2023/12/29 14:14:59;;;;;;;;;4.00;2.67;;;;;;;;4957958;28;75254;-77
2023/12/29 14:17:39;;;;;;;;;2.00;2.00;;;;;;;;4972703;28;45576;-77
2023/12/29 14:29:47;;;;;;;;;4.00;3.00;;;;;;;;4914665;28;45306;-78
2023/12/29 14:32:12;;;;;;;;;5.00;5.00;;;;;;;;4937998;28;45651;-76
2023/12/29 14:34:37;;;;;;;;;5.67;4.33;;;;;;;;4955460;28;45472;-77
2023/12/29 14:37:02;;;;;;;;;4.33;3.00;;;;;;;;5027581;28;46140;-76
2023/12/29 14:39:27;;;;;;;;;3.00;1.00;;;;;;;;5080225;28;45329;-77
2023/12/29 14:41:53;;;;;;;;;3.33;2.00;;;;;;;;5080154;28;45430;-78
2023/12/29 14:44:18;;;;;;;;;2.33;2.33;;;;;;;;5079089;28;45367;-78
2023/12/29 14:46:44;;;;;;;;;3.00;2.00;;;;;;;;5075395;28;47294;-78
2023/12/29 14:49:09;;;;;;;;;2.00;2.00;;;;;;;;5072575;28;45376;-80
2023/12/29 14:51:34;;;;;;;;;2.33;2.33;;;;;;;;5074831;28;45462;-77
2023/12/29 14:54:02;;;;;;;;;0.33;0.33;;;;;;;;5074900;28;46224;-78
2023/12/29 14:56:28;;;;;;;;;2.33;2.33;;;;;;;;5078350;28;46035;-78
2023/12/29 14:58:53;;;;;;;;;1.67;1.67;;;;;;;;5079599;28;45307;-77
2023/12/29 15:01:18;;;;;;;;;1.33;1.33;;;;;;;;5061600;28;45541;-78
2023/12/29 15:03:43;;;;;;;;;3.33;2.67;;;;;;;;5076304;28;45679;-78
2023/12/29 15:06:08;;;;;;;;;3.67;3.00;;;;;;;;5060608;28;47442;-79
2023/12/29 15:08:37;;;;;;;;;1.33;1.33;;;;;;;;5077389;28;45646;-79
2023/12/29 15:11:06;;;;;;;;;3.00;1.00;;;;;;;;5075450;28;45225;-78